Hlavní strana
METAR-TAF:

METAR-TAF

Letiště :

Red Oak Municipal Airport

Red Oak, Iowa, Spojené státy americké

zeměpisná šířka: 41-01N, zeměpisná délka: 095-16W, výška: 318 m

Aktuální stav počasí

Zpráva byla vytvořena před 20 minutami, v 11:35 UTC
Severoseverozápadní vítr 14 kt
Teplota 0°C
Vlhkost vzduchu 93%
Tlak 1015 hPa
Viditelnost: 9.7 km
Zataženo ve výšce 1000 ft
kouřmo

METAR: KRDK 241135Z AUTO 34014KT 6SM BR OVC010 M00/M01 A2996 RMK AO2

Čas: 05:55 (11:55 UTC)


TAF: chybějící

Stav a předpovědi počasí z více než 4 000 letišť (zprávy METAR a TAF).

Červené a žluté tečky na mapě představují dostupné meteorologické stanice.

Když kurzor umístíte na tečku, zobrazí se název stanice.

Pak kliknutím zobrazíte stav a předpověď počasí.

Chcete-li změnit mapu, kliknutím na zelené tlačítko se znaménkem +mapu přiblížíte, kliknutím na zelené tlačítko se znaménkem – mapu oddálíte a kliknutím na zelené šipky přejdete na sousední mapy.


METAR-TAF: